Hoosick Junction, New York
Current Conditions -  °F | °C
As of 11:54 PM on Friday 28 Nov 2014 (Local Time) from KDDH Reporting Station
Light Snow Light Snow  
Wind Chill: 22°   Ceiling: 4400
Heat Index: 22°   Visibility: 5mi
Dew Point: 16°   Wind: 3mph
Humidity: 78%   Direction: 230°SW
Pressure: 30.2"   Gusts: NA
Location:  42.9226°N, 73.3603°W
Report Text: KDDH 290454Z AUTO 23003KT 5SM -SN OVC044 M06/M09 A3020 RMK AO2 SNB20 SLP237 P0000 T10561089 410221056
Loading
Personal Weather Stations






























Interactive Weather Map New forecast layout! Learn more

10-Day Weather Forecast

Advertisements
Track Severe Weather on mobile